14:29
Airports
History
Links
Donate
Help keep this website running!
PayPal
Bitcoin
Information on this page is community maintained and may be outdated or inaccurate and is intended for reference only or PC simulator navigating!
Always use approved charts for navigating.
SIRJ
CAIMA
CAIMA (SIRJ)
Itaituba, Pará, Brazil
(U)
Lat/Lng:4° 18' 12.93" S / 56° 13' 5.04" W
-4.303593 / -56.218068
Elevation:115'ft 35mMSL
ID / ICAO:SIRJ
Runways:1
Longest:(12-30) 1,995.6m 6,547ft Asphalt
Distance To
Airport ID:
Nearby WeatherUpdated 03-30-17 14:00 GMT
Nearby weather at SBIH, ITAITUBA located 15.6 nautical miles from SIRJ
Altimeter: 29.94
Visibility: 5.0 statute miles
Wind: 3 knots (090°)
Temp: 25°c 77°f
Humidity: 88.7%

METAR: SBIH 301400Z 09003KT 8000 FEW012 SCT017 BKN080 25/23 Q1014

(Powered by phpweather)
Runway 12 / 30
Dimensions:1995.6 x 35.1m 6547' x 115'ft
Surface:Asphalt
Edge Lights:Low intensity
Runway 12 [A]Runway 30 [B]
Heading:100°TH 280°TH
Lat:
Lng:
4° 18' 7.07"S
56° 13' 37"W
4° 18' 18.8"S
56° 12' 33.09"W
Google Map
Nearby Airports
(U) FAZENDA ROSA DE MAIO 7.7 NM
SNRB E 96°
4 Santa Teresa 9.0 NM
SNTJ E 84°
(C) ITAITUBA 15.6 NM
SBIH (WX) ENE 74°
(C) Rudy Kappel 36.3 NM
SMTB N
4 Aerorural Floramazon 43.1 NM
SJGA NNE 15°
4 Agropastoril Sol Nascente 55.3 NM
SDUA N 353°
4 Comunidade Sao Leopoldo do Tapajos 66.9 NM
SIXM SW 226°
VFR Chart
Flight Planning at SkyVector.com